sensor_id;sensor_type;location;lat;lon;timestamp;temperature;humidity
41924;DHT22;27613;48.116;11.656;2023-02-28T00:02:10;-3.70;99.90
41924;DHT22;27613;48.116;11.656;2023-02-28T00:04:35;-3.80;99.90
41924;DHT22;27613;48.116;11.656;2023-02-28T00:07:01;-3.80;99.90
41924;DHT22;27613;48.116;11.656;2023-02-28T00:09:26;-3.80;99.90
41924;DHT22;27613;48.116;11.656;2023-02-28T00:11:52;-3.90;99.90
41924;DHT22;27613;48.116;11.656;2023-02-28T00:14:18;-3.80;99.90
41924;DHT22;27613;48.116;11.656;2023-02-28T00:16:43;-3.90;99.90
41924;DHT22;27613;48.116;11.656;2023-02-28T00:19:09;-4.00;99.90
41924;DHT22;27613;48.116;11.656;2023-02-28T00:21:35;-4.00;99.90
41924;DHT22;27613;48.116;11.656;2023-02-28T00:24:00;-4.00;99.90
41924;DHT22;27613;48.116;11.656;2023-02-28T00:26:26;-4.10;99.90
41924;DHT22;27613;48.116;11.656;2023-02-28T00:28:52;-4.10;99.90
41924;DHT22;27613;48.116;11.656;2023-02-28T00:31:18;-4.10;99.90
41924;DHT22;27613;48.116;11.656;2023-02-28T00:33:43;-4.10;99.90
41924;DHT22;27613;48.116;11.656;2023-02-28T00:36:10;-4.20;99.90
41924;DHT22;27613;48.116;11.656;2023-02-28T00:38:37;-4.10;99.90
41924;DHT22;27613;48.116;11.656;2023-02-28T00:41:03;-4.20;99.90
41924;DHT22;27613;48.116;11.656;2023-02-28T00:43:30;-4.20;99.90
41924;DHT22;27613;48.116;11.656;2023-02-28T00:45:56;-4.10;99.90
41924;DHT22;27613;48.116;11.656;2023-02-28T00:48:21;-4.20;99.90
41924;DHT22;27613;48.116;11.656;2023-02-28T00:50:49;-4.20;99.90
41924;DHT22;27613;48.116;11.656;2023-02-28T00:53:15;-4.30;99.90
41924;DHT22;27613;48.116;11.656;2023-02-28T00:55:40;-4.20;99.90
41924;DHT22;27613;48.116;11.656;2023-02-28T00:58:06;-4.30;99.90
41924;DHT22;27613;48.116;11.656;2023-02-28T01:00:31;-4.30;99.90
41924;DHT22;27613;48.116;11.656;2023-02-28T01:02:57;-4.40;99.90
41924;DHT22;27613;48.116;11.656;2023-02-28T01:05:22;-4.40;99.90
41924;DHT22;27613;48.116;11.656;2023-02-28T01:07:48;-4.50;99.90
41924;DHT22;27613;48.116;11.656;2023-02-28T01:10:14;-4.50;99.90
41924;DHT22;27613;48.116;11.656;2023-02-28T01:12:39;-4.50;99.90
41924;DHT22;27613;48.116;11.656;2023-02-28T01:15:05;-4.50;99.90
41924;DHT22;27613;48.116;11.656;2023-02-28T01:17:31;-4.50;99.90
41924;DHT22;27613;48.116;11.656;2023-02-28T01:19:56;-4.40;99.90
41924;DHT22;27613;48.116;11.656;2023-02-28T01:22:22;-4.50;99.90
41924;DHT22;27613;48.116;11.656;2023-02-28T01:24:48;-4.50;99.90
41924;DHT22;27613;48.116;11.656;2023-02-28T01:27:13;-4.60;99.90
41924;DHT22;27613;48.116;11.656;2023-02-28T01:29:39;-4.60;99.90
41924;DHT22;27613;48.116;11.656;2023-02-28T01:32:04;-4.70;99.90
41924;DHT22;27613;48.116;11.656;2023-02-28T01:34:30;-4.70;99.90
41924;DHT22;27613;48.116;11.656;2023-02-28T01:36:56;-4.60;99.90
41924;DHT22;27613;48.116;11.656;2023-02-28T01:39:24;-4.60;99.90
41924;DHT22;27613;48.116;11.656;2023-02-28T01:41:50;-4.70;99.90
41924;DHT22;27613;48.116;11.656;2023-02-28T01:47:18;-4.80;99.90
41924;DHT22;27613;48.116;11.656;2023-02-28T01:49:44;-4.80;99.90
41924;DHT22;27613;48.116;11.656;2023-02-28T01:52:12;-4.80;99.90
41924;DHT22;27613;48.116;11.656;2023-02-28T01:54:46;-4.80;99.90
41924;DHT22;27613;48.116;11.656;2023-02-28T01:57:18;-4.80;99.90
41924;DHT22;27613;48.116;11.656;2023-02-28T01:59:54;-4.80;99.90
41924;DHT22;27613;48.116;11.656;2023-02-28T02:02:24;-4.80;99.90
41924;DHT22;27613;48.116;11.656;2023-02-28T02:05:07;-4.80;99.90
41924;DHT22;27613;48.116;11.656;2023-02-28T02:07:35;-4.80;99.90
41924;DHT22;27613;48.116;11.656;2023-02-28T02:10:15;-4.80;99.90
41924;DHT22;27613;48.116;11.656;2023-02-28T02:15:34;-4.80;99.90
41924;DHT22;27613;48.116;11.656;2023-02-28T02:18:07;-4.80;99.90
41924;DHT22;27613;48.116;11.656;2023-02-28T02:23:29;-4.80;99.90
41924;DHT22;27613;48.116;11.656;2023-02-28T02:32:03;-4.80;99.90
41924;DHT22;27613;48.116;11.656;2023-02-28T02:37:38;-4.80;99.90
41924;DHT22;27613;48.116;11.656;2023-02-28T02:45:39;-4.90;99.90
41924;DHT22;27613;48.116;11.656;2023-02-28T02:48:09;-4.90;99.90
41924;DHT22;27613;48.116;11.656;2023-02-28T02:50:39;-4.80;99.90
41924;DHT22;27613;48.116;11.656;2023-02-28T02:53:07;-4.90;99.90
41924;DHT22;27613;48.116;11.656;2023-02-28T02:55:39;-4.90;99.90
41924;DHT22;27613;48.116;11.656;2023-02-28T02:58:09;-4.90;99.90
41924;DHT22;27613;48.116;11.656;2023-02-28T03:00:41;-4.90;99.90
41924;DHT22;27613;48.116;11.656;2023-02-28T03:03:09;-4.90;99.90
41924;DHT22;27613;48.116;11.656;2023-02-28T03:05:42;-4.90;99.90
41924;DHT22;27613;48.116;11.656;2023-02-28T03:08:09;-5.00;99.90
41924;DHT22;27613;48.116;11.656;2023-02-28T03:10:45;-5.00;99.90
41924;DHT22;27613;48.116;11.656;2023-02-28T03:27:15;-5.10;99.90
41924;DHT22;27613;48.116;11.656;2023-02-28T03:29:47;-5.10;99.90
41924;DHT22;27613;48.116;11.656;2023-02-28T03:32:35;-5.20;99.90
41924;DHT22;27613;48.116;11.656;2023-02-28T03:35:20;-5.20;99.90
41924;DHT22;27613;48.116;11.656;2023-02-28T03:37:49;-5.20;99.90
41924;DHT22;27613;48.116;11.656;2023-02-28T03:40:21;-5.20;99.90
41924;DHT22;27613;48.116;11.656;2023-02-28T03:42:50;-5.30;99.90
41924;DHT22;27613;48.116;11.656;2023-02-28T03:45:26;-5.30;99.90
41924;DHT22;27613;48.116;11.656;2023-02-28T03:48:03;-5.30;99.90
41924;DHT22;27613;48.116;11.656;2023-02-28T03:50:42;-5.30;99.90
41924;DHT22;27613;48.116;11.656;2023-02-28T03:55:42;-5.20;99.90
41924;DHT22;27613;48.116;11.656;2023-02-28T03:58:28;-5.20;99.90
41924;DHT22;27613;48.116;11.656;2023-02-28T04:03:35;-5.10;99.90
41924;DHT22;27613;48.116;11.656;2023-02-28T04:06:01;-5.10;99.90
41924;DHT22;27613;48.116;11.656;2023-02-28T04:08:27;-5.20;99.90
41924;DHT22;27613;48.116;11.656;2023-02-28T04:11:35;-5.20;99.90
41924;DHT22;27613;48.116;11.656;2023-02-28T04:14:02;-5.10;99.90
41924;DHT22;27613;48.116;11.656;2023-02-28T04:16:29;-5.10;99.90
41924;DHT22;27613;48.116;11.656;2023-02-28T04:18:55;-5.20;99.90
41924;DHT22;27613;48.116;11.656;2023-02-28T04:21:29;-5.20;99.90
41924;DHT22;27613;48.116;11.656;2023-02-28T04:23:55;-5.10;99.90
41924;DHT22;27613;48.116;11.656;2023-02-28T04:26:21;-5.20;99.90
41924;DHT22;27613;48.116;11.656;2023-02-28T04:28:46;-5.20;99.90
41924;DHT22;27613;48.116;11.656;2023-02-28T04:31:12;-5.10;99.90
41924;DHT22;27613;48.116;11.656;2023-02-28T04:33:37;-5.10;99.90
41924;DHT22;27613;48.116;11.656;2023-02-28T04:36:06;-5.00;99.90
41924;DHT22;27613;48.116;11.656;2023-02-28T04:38:34;-4.90;99.90
41924;DHT22;27613;48.116;11.656;2023-02-28T04:41:00;-4.80;99.90
41924;DHT22;27613;48.116;11.656;2023-02-28T04:43:27;-4.80;99.90
41924;DHT22;27613;48.116;11.656;2023-02-28T04:45:53;-4.90;99.90
41924;DHT22;27613;48.116;11.656;2023-02-28T04:48:22;-4.80;99.90
41924;DHT22;27613;48.116;11.656;2023-02-28T04:50:48;-4.70;99.90
41924;DHT22;27613;48.116;11.656;2023-02-28T04:53:14;-4.70;99.90
41924;DHT22;27613;48.116;11.656;2023-02-28T04:55:39;-4.60;99.90
41924;DHT22;27613;48.116;11.656;2023-02-28T04:58:05;-4.60;99.90
41924;DHT22;27613;48.116;11.656;2023-02-28T05:00:30;-4.50;99.90
41924;DHT22;27613;48.116;11.656;2023-02-28T05:02:56;-4.50;99.90
41924;DHT22;27613;48.116;11.656;2023-02-28T05:05:21;-4.40;99.90
41924;DHT22;27613;48.116;11.656;2023-02-28T05:07:47;-4.40;99.90
41924;DHT22;27613;48.116;11.656;2023-02-28T05:10:12;-4.30;99.90
41924;DHT22;27613;48.116;11.656;2023-02-28T05:12:38;-4.20;99.90
41924;DHT22;27613;48.116;11.656;2023-02-28T05:15:04;-4.20;99.90
41924;DHT22;27613;48.116;11.656;2023-02-28T05:17:30;-4.10;99.90
41924;DHT22;27613;48.116;11.656;2023-02-28T05:19:56;-4.20;99.90
41924;DHT22;27613;48.116;11.656;2023-02-28T05:22:23;-4.20;99.90
41924;DHT22;27613;48.116;11.656;2023-02-28T05:24:48;-4.10;99.90
41924;DHT22;27613;48.116;11.656;2023-02-28T05:27:14;-4.00;99.90
41924;DHT22;27613;48.116;11.656;2023-02-28T05:29:39;-3.90;99.90
41924;DHT22;27613;48.116;11.656;2023-02-28T05:32:10;-3.90;99.90
41924;DHT22;27613;48.116;11.656;2023-02-28T05:34:39;-3.90;99.90
41924;DHT22;27613;48.116;11.656;2023-02-28T05:37:06;-3.90;99.90
41924;DHT22;27613;48.116;11.656;2023-02-28T05:39:33;-3.90;99.90
41924;DHT22;27613;48.116;11.656;2023-02-28T05:41:59;-3.80;99.90
41924;DHT22;27613;48.116;11.656;2023-02-28T05:44:24;-3.80;99.90
41924;DHT22;27613;48.116;11.656;2023-02-28T05:46:50;-3.70;99.90
41924;DHT22;27613;48.116;11.656;2023-02-28T05:49:15;-3.70;99.90
41924;DHT22;27613;48.116;11.656;2023-02-28T05:51:41;-3.70;99.90
41924;DHT22;27613;48.116;11.656;2023-02-28T05:54:07;-3.60;99.90
41924;DHT22;27613;48.116;11.656;2023-02-28T05:56:33;-3.60;99.90
41924;DHT22;27613;48.116;11.656;2023-02-28T05:59:00;-3.60;99.90
41924;DHT22;27613;48.116;11.656;2023-02-28T06:01:40;-3.60;99.90
41924;DHT22;27613;48.116;11.656;2023-02-28T06:04:08;-3.40;99.90
41924;DHT22;27613;48.116;11.656;2023-02-28T06:06:34;-3.50;99.90
41924;DHT22;27613;48.116;11.656;2023-02-28T06:09:01;-3.40;99.90
41924;DHT22;27613;48.116;11.656;2023-02-28T06:11:27;-3.40;99.90
41924;DHT22;27613;48.116;11.656;2023-02-28T06:14:00;-3.40;99.90
41924;DHT22;27613;48.116;11.656;2023-02-28T06:16:27;-3.30;99.90
41924;DHT22;27613;48.116;11.656;2023-02-28T06:18:53;-3.30;99.90
41924;DHT22;27613;48.116;11.656;2023-02-28T06:21:21;-3.30;99.90
41924;DHT22;27613;48.116;11.656;2023-02-28T06:23:47;-3.30;99.90
41924;DHT22;27613;48.116;11.656;2023-02-28T06:26:12;-3.20;99.90
41924;DHT22;27613;48.116;11.656;2023-02-28T06:28:38;-3.20;99.90
41924;DHT22;27613;48.116;11.656;2023-02-28T06:31:12;-3.10;99.90
41924;DHT22;27613;48.116;11.656;2023-02-28T06:33:38;-3.10;99.90
41924;DHT22;27613;48.116;11.656;2023-02-28T06:36:05;-3.10;99.90
41924;DHT22;27613;48.116;11.656;2023-02-28T06:38:31;-3.10;99.90
41924;DHT22;27613;48.116;11.656;2023-02-28T06:40:58;-3.00;99.90
41924;DHT22;27613;48.116;11.656;2023-02-28T06:43:27;-3.00;99.90
41924;DHT22;27613;48.116;11.656;2023-02-28T06:45:57;-3.00;99.90
41924;DHT22;27613;48.116;11.656;2023-02-28T06:48:23;-3.00;99.90
41924;DHT22;27613;48.116;11.656;2023-02-28T06:50:49;-3.00;99.90
41924;DHT22;27613;48.116;11.656;2023-02-28T06:53:16;-3.00;99.90
41924;DHT22;27613;48.116;11.656;2023-02-28T06:55:41;-2.90;99.90
41924;DHT22;27613;48.116;11.656;2023-02-28T06:58:07;-2.90;99.90
41924;DHT22;27613;48.116;11.656;2023-02-28T07:00:42;-2.90;99.90
41924;DHT22;27613;48.116;11.656;2023-02-28T07:03:07;-2.90;99.90
41924;DHT22;27613;48.116;11.656;2023-02-28T07:05:35;-2.90;99.90
41924;DHT22;27613;48.116;11.656;2023-02-28T07:08:01;-2.80;99.90
41924;DHT22;27613;48.116;11.656;2023-02-28T07:10:26;-2.80;99.90
41924;DHT22;27613;48.116;11.656;2023-02-28T07:12:52;-2.70;99.90
41924;DHT22;27613;48.116;11.656;2023-02-28T07:15:17;-2.70;99.90
41924;DHT22;27613;48.116;11.656;2023-02-28T07:17:43;-2.70;99.90
41924;DHT22;27613;48.116;11.656;2023-02-28T07:20:09;-2.60;99.90
41924;DHT22;27613;48.116;11.656;2023-02-28T07:22:35;-2.60;99.90
41924;DHT22;27613;48.116;11.656;2023-02-28T07:25:00;-2.60;99.90
41924;DHT22;27613;48.116;11.656;2023-02-28T07:27:26;-2.60;99.90
41924;DHT22;27613;48.116;11.656;2023-02-28T07:29:52;-2.50;99.90
41924;DHT22;27613;48.116;11.656;2023-02-28T07:32:18;-2.60;99.90
41924;DHT22;27613;48.116;11.656;2023-02-28T07:34:44;-2.50;99.90
41924;DHT22;27613;48.116;11.656;2023-02-28T07:37:10;-2.50;99.90
41924;DHT22;27613;48.116;11.656;2023-02-28T07:39:36;-2.40;99.90
41924;DHT22;27613;48.116;11.656;2023-02-28T07:42:05;-2.40;99.90
41924;DHT22;27613;48.116;11.656;2023-02-28T07:44:31;-2.40;99.90
41924;DHT22;27613;48.116;11.656;2023-02-28T07:46:57;-2.30;99.90
41924;DHT22;27613;48.116;11.656;2023-02-28T07:49:23;-2.30;99.90
41924;DHT22;27613;48.116;11.656;2023-02-28T07:51:48;-2.30;99.90
41924;DHT22;27613;48.116;11.656;2023-02-28T07:54:14;-2.30;99.90
41924;DHT22;27613;48.116;11.656;2023-02-28T07:56:39;-2.20;99.90
41924;DHT22;27613;48.116;11.656;2023-02-28T07:59:05;-2.20;99.90
41924;DHT22;27613;48.116;11.656;2023-02-28T08:01:30;-2.20;99.90
41924;DHT22;27613;48.116;11.656;2023-02-28T08:03:56;-2.10;99.90
41924;DHT22;27613;48.116;11.656;2023-02-28T08:06:23;-2.10;99.90
41924;DHT22;27613;48.116;11.656;2023-02-28T08:08:49;-2.10;99.90
41924;DHT22;27613;48.116;11.656;2023-02-28T08:11:16;-2.00;99.90
41924;DHT22;27613;48.116;11.656;2023-02-28T08:13:42;-2.00;99.90
41924;DHT22;27613;48.116;11.656;2023-02-28T08:16:11;-2.10;99.90
41924;DHT22;27613;48.116;11.656;2023-02-28T08:18:39;-2.00;99.90
41924;DHT22;27613;48.116;11.656;2023-02-28T08:21:09;-2.10;99.90
41924;DHT22;27613;48.116;11.656;2023-02-28T08:23:35;-2.00;99.90
41924;DHT22;27613;48.116;11.656;2023-02-28T08:26:01;-2.00;99.90
41924;DHT22;27613;48.116;11.656;2023-02-28T08:28:27;-2.00;99.90
41924;DHT22;27613;48.116;11.656;2023-02-28T08:30:52;-1.90;99.90
41924;DHT22;27613;48.116;11.656;2023-02-28T08:33:18;-1.90;99.90
41924;DHT22;27613;48.116;11.656;2023-02-28T08:35:44;-1.80;99.90
41924;DHT22;27613;48.116;11.656;2023-02-28T08:38:09;-1.80;99.90
41924;DHT22;27613;48.116;11.656;2023-02-28T08:40:35;-1.80;99.90
41924;DHT22;27613;48.116;11.656;2023-02-28T08:43:00;-1.70;99.90
41924;DHT22;27613;48.116;11.656;2023-02-28T08:45:26;-1.70;99.90
41924;DHT22;27613;48.116;11.656;2023-02-28T08:47:51;-1.70;99.90
41924;DHT22;27613;48.116;11.656;2023-02-28T08:50:19;-1.70;99.90
41924;DHT22;27613;48.116;11.656;2023-02-28T08:52:44;-1.60;99.90
41924;DHT22;27613;48.116;11.656;2023-02-28T08:55:10;-1.50;99.90
41924;DHT22;27613;48.116;11.656;2023-02-28T08:57:36;-1.50;99.90
41924;DHT22;27613;48.116;11.656;2023-02-28T09:00:02;-1.40;99.90
41924;DHT22;27613;48.116;11.656;2023-02-28T09:02:30;-1.40;99.90
41924;DHT22;27613;48.116;11.656;2023-02-28T09:04:56;-1.40;99.90
41924;DHT22;27613;48.116;11.656;2023-02-28T09:07:22;-1.30;99.90
41924;DHT22;27613;48.116;11.656;2023-02-28T09:09:47;-1.20;99.90
41924;DHT22;27613;48.116;11.656;2023-02-28T09:12:20;-1.10;99.90
41924;DHT22;27613;48.116;11.656;2023-02-28T09:14:46;-1.10;99.90
41924;DHT22;27613;48.116;11.656;2023-02-28T09:17:11;-1.00;99.90
41924;DHT22;27613;48.116;11.656;2023-02-28T09:19:37;-0.90;99.90
41924;DHT22;27613;48.116;11.656;2023-02-28T09:22:02;-1.20;99.90
41924;DHT22;27613;48.116;11.656;2023-02-28T09:24:28;-1.10;99.90
41924;DHT22;27613;48.116;11.656;2023-02-28T09:26:53;-1.00;99.90
41924;DHT22;27613;48.116;11.656;2023-02-28T09:29:19;-0.90;99.90
41924;DHT22;27613;48.116;11.656;2023-02-28T09:31:44;-0.90;99.90
41924;DHT22;27613;48.116;11.656;2023-02-28T09:34:10;-0.90;99.90
41924;DHT22;27613;48.116;11.656;2023-02-28T09:36:36;-0.70;99.90
41924;DHT22;27613;48.116;11.656;2023-02-28T09:39:04;-0.70;99.90
41924;DHT22;27613;48.116;11.656;2023-02-28T09:41:43;-0.80;99.90
41924;DHT22;27613;48.116;11.656;2023-02-28T09:44:39;-0.70;99.90
41924;DHT22;27613;48.116;11.656;2023-02-28T09:49:49;-0.50;99.90
41924;DHT22;27613;48.116;11.656;2023-02-28T09:52:19;-0.30;99.90
41924;DHT22;27613;48.116;11.656;2023-02-28T09:54:45;-0.50;99.90
41924;DHT22;27613;48.116;11.656;2023-02-28T10:00:15;-0.60;99.90
41924;DHT22;27613;48.116;11.656;2023-02-28T10:03:15;-0.50;99.90
41924;DHT22;27613;48.116;11.656;2023-02-28T10:08:37;-0.30;99.90
41924;DHT22;27613;48.116;11.656;2023-02-28T10:11:08;0.10;99.90
41924;DHT22;27613;48.116;11.656;2023-02-28T10:13:57;0.30;99.90
41924;DHT22;27613;48.116;11.656;2023-02-28T10:16:37;0.30;99.90
41924;DHT22;27613;48.116;11.656;2023-02-28T10:21:43;0.80;99.90
41924;DHT22;27613;48.116;11.656;2023-02-28T10:24:23;1.00;99.90
41924;DHT22;27613;48.116;11.656;2023-02-28T10:26:52;1.20;99.90
41924;DHT22;27613;48.116;11.656;2023-02-28T10:29:19;1.50;99.20
41924;DHT22;27613;48.116;11.656;2023-02-28T10:31:44;1.90;97.00
41924;DHT22;27613;48.116;11.656;2023-02-28T10:34:11;2.10;95.40
41924;DHT22;27613;48.116;11.656;2023-02-28T10:36:38;2.20;94.60
41924;DHT22;27613;48.116;11.656;2023-02-28T10:42:02;1.60;95.50
41924;DHT22;27613;48.116;11.656;2023-02-28T10:44:27;1.60;95.30
41924;DHT22;27613;48.116;11.656;2023-02-28T10:46:53;1.90;95.10
41924;DHT22;27613;48.116;11.656;2023-02-28T10:49:28;2.30;94.80
41924;DHT22;27613;48.116;11.656;2023-02-28T10:51:59;2.70;93.50
41924;DHT22;27613;48.116;11.656;2023-02-28T10:54:34;3.10;92.50
41924;DHT22;27613;48.116;11.656;2023-02-28T10:59:44;2.50;92.90
41924;DHT22;27613;48.116;11.656;2023-02-28T11:02:34;2.50;92.70
41924;DHT22;27613;48.116;11.656;2023-02-28T11:05:00;2.30;93.50
41924;DHT22;27613;48.116;11.656;2023-02-28T11:07:26;1.90;94.40
41924;DHT22;27613;48.116;11.656;2023-02-28T11:09:55;1.80;94.40
41924;DHT22;27613;48.116;11.656;2023-02-28T11:12:38;1.80;94.90
41924;DHT22;27613;48.116;11.656;2023-02-28T11:15:21;1.80;94.90
41924;DHT22;27613;48.116;11.656;2023-02-28T11:18:06;2.10;94.80
41924;DHT22;27613;48.116;11.656;2023-02-28T11:20:41;2.10;95.50
41924;DHT22;27613;48.116;11.656;2023-02-28T11:23:12;1.80;94.80
41924;DHT22;27613;48.116;11.656;2023-02-28T11:25:39;1.80;95.20
41924;DHT22;27613;48.116;11.656;2023-02-28T11:28:09;2.40;94.70
41924;DHT22;27613;48.116;11.656;2023-02-28T11:31:00;2.50;93.70
41924;DHT22;27613;48.116;11.656;2023-02-28T11:35:57;2.70;93.30
41924;DHT22;27613;48.116;11.656;2023-02-28T11:38:25;2.70;93.10
41924;DHT22;27613;48.116;11.656;2023-02-28T11:44:00;2.40;93.30
41924;DHT22;27613;48.116;11.656;2023-02-28T11:46:49;2.40;93.60
41924;DHT22;27613;48.116;11.656;2023-02-28T11:52:21;3.30;91.90
41924;DHT22;27613;48.116;11.656;2023-02-28T11:57:58;4.10;89.80
41924;DHT22;27613;48.116;11.656;2023-02-28T12:00:40;5.10;86.70
41924;DHT22;27613;48.116;11.656;2023-02-28T12:03:43;5.90;81.40
41924;DHT22;27613;48.116;11.656;2023-02-28T12:06:13;6.00;81.30
41924;DHT22;27613;48.116;11.656;2023-02-28T12:09:03;6.10;76.60
41924;DHT22;27613;48.116;11.656;2023-02-28T12:11:45;6.20;75.70
41924;DHT22;27613;48.116;11.656;2023-02-28T12:17:28;6.60;72.60
41924;DHT22;27613;48.116;11.656;2023-02-28T12:20:33;7.60;72.90
41924;DHT22;27613;48.116;11.656;2023-02-28T12:28:15;8.10;69.00
41924;DHT22;27613;48.116;11.656;2023-02-28T12:30:50;7.10;70.60
41924;DHT22;27613;48.116;11.656;2023-02-28T12:33:21;8.20;70.80
41924;DHT22;27613;48.116;11.656;2023-02-28T12:35:59;9.20;64.00
41924;DHT22;27613;48.116;11.656;2023-02-28T12:41:05;10.20;63.70
41924;DHT22;27613;48.116;11.656;2023-02-28T12:43:40;10.60;62.40
41924;DHT22;27613;48.116;11.656;2023-02-28T12:46:11;12.10;59.70
41924;DHT22;27613;48.116;11.656;2023-02-28T12:48:42;12.40;57.50
41924;DHT22;27613;48.116;11.656;2023-02-28T12:51:09;12.10;57.10
41924;DHT22;27613;48.116;11.656;2023-02-28T12:53:49;11.30;58.60
41924;DHT22;27613;48.116;11.656;2023-02-28T12:58:56;12.70;54.40
41924;DHT22;27613;48.116;11.656;2023-02-28T13:01:42;13.50;53.10
41924;DHT22;27613;48.116;11.656;2023-02-28T13:04:34;13.20;54.40
41924;DHT22;27613;48.116;11.656;2023-02-28T13:09:57;9.50;54.30
41924;DHT22;27613;48.116;11.656;2023-02-28T13:12:23;11.50;57.30
41924;DHT22;27613;48.116;11.656;2023-02-28T13:14:49;11.70;57.10
41924;DHT22;27613;48.116;11.656;2023-02-28T13:17:19;11.70;55.20
41924;DHT22;27613;48.116;11.656;2023-02-28T13:20:14;10.40;56.30
41924;DHT22;27613;48.116;11.656;2023-02-28T13:22:46;10.60;58.40
41924;DHT22;27613;48.116;11.656;2023-02-28T13:28:01;8.60;63.10
41924;DHT22;27613;48.116;11.656;2023-02-28T13:33:29;7.60;64.30
41924;DHT22;27613;48.116;11.656;2023-02-28T13:36:26;6.30;64.80
41924;DHT22;27613;48.116;11.656;2023-02-28T13:38:55;6.70;66.80
41924;DHT22;27613;48.116;11.656;2023-02-28T13:44:15;6.20;70.40
41924;DHT22;27613;48.116;11.656;2023-02-28T13:49:31;6.20;70.60
41924;DHT22;27613;48.116;11.656;2023-02-28T13:54:37;6.40;69.70
41924;DHT22;27613;48.116;11.656;2023-02-28T14:02:28;6.10;72.30
41924;DHT22;27613;48.116;11.656;2023-02-28T14:07:43;5.60;73.10
41924;DHT22;27613;48.116;11.656;2023-02-28T14:10:23;5.80;71.90
41924;DHT22;27613;48.116;11.656;2023-02-28T14:15:46;7.20;69.20
41924;DHT22;27613;48.116;11.656;2023-02-28T14:18:35;8.10;66.80
41924;DHT22;27613;48.116;11.656;2023-02-28T14:21:14;8.90;64.60
41924;DHT22;27613;48.116;11.656;2023-02-28T14:32:32;6.30;70.20
41924;DHT22;27613;48.116;11.656;2023-02-28T14:37:42;5.70;72.50
41924;DHT22;27613;48.116;11.656;2023-02-28T14:40:32;6.80;70.40
41924;DHT22;27613;48.116;11.656;2023-02-28T14:43:01;7.80;68.20
41924;DHT22;27613;48.116;11.656;2023-02-28T14:45:29;7.30;67.80
41924;DHT22;27613;48.116;11.656;2023-02-28T14:47:57;6.90;68.00
41924;DHT22;27613;48.116;11.656;2023-02-28T14:50:29;6.50;69.30
41924;DHT22;27613;48.116;11.656;2023-02-28T14:52:56;5.90;71.10
41924;DHT22;27613;48.116;11.656;2023-02-28T14:55:31;7.00;70.20
41924;DHT22;27613;48.116;11.656;2023-02-28T14:58:00;8.20;66.70
41924;DHT22;27613;48.116;11.656;2023-02-28T15:00:31;8.50;66.20
41924;DHT22;27613;48.116;11.656;2023-02-28T15:02:58;8.90;64.10
41924;DHT22;27613;48.116;11.656;2023-02-28T15:08:21;9.70;61.10
41924;DHT22;27613;48.116;11.656;2023-02-28T15:10:58;9.70;61.40
41924;DHT22;27613;48.116;11.656;2023-02-28T15:16:29;9.30;62.10
41924;DHT22;27613;48.116;11.656;2023-02-28T15:19:00;8.40;64.30
41924;DHT22;27613;48.116;11.656;2023-02-28T15:21:30;8.80;63.60
41924;DHT22;27613;48.116;11.656;2023-02-28T15:24:30;8.90;62.70
41924;DHT22;27613;48.116;11.656;2023-02-28T15:26:58;8.60;64.50
41924;DHT22;27613;48.116;11.656;2023-02-28T15:29:27;8.70;64.70
41924;DHT22;27613;48.116;11.656;2023-02-28T15:32:04;8.90;63.70
41924;DHT22;27613;48.116;11.656;2023-02-28T15:34:42;8.60;64.10
41924;DHT22;27613;48.116;11.656;2023-02-28T15:39:53;7.80;65.40
41924;DHT22;27613;48.116;11.656;2023-02-28T15:42:21;7.10;67.90
41924;DHT22;27613;48.116;11.656;2023-02-28T15:44:47;6.70;69.20
41924;DHT22;27613;48.116;11.656;2023-02-28T15:47:22;6.70;69.90
41924;DHT22;27613;48.116;11.656;2023-02-28T15:52:39;6.90;69.70
41924;DHT22;27613;48.116;11.656;2023-02-28T15:55:24;7.00;69.20
41924;DHT22;27613;48.116;11.656;2023-02-28T15:57:54;6.70;69.50
41924;DHT22;27613;48.116;11.656;2023-02-28T16:00:22;6.60;70.30
41924;DHT22;27613;48.116;11.656;2023-02-28T16:02:49;6.60;70.80
41924;DHT22;27613;48.116;11.656;2023-02-28T16:05:19;6.30;71.30
41924;DHT22;27613;48.116;11.656;2023-02-28T16:07:46;5.90;72.50
41924;DHT22;27613;48.116;11.656;2023-02-28T16:10:13;5.70;73.60
41924;DHT22;27613;48.116;11.656;2023-02-28T16:12:40;5.60;73.60
41924;DHT22;27613;48.116;11.656;2023-02-28T16:15:14;5.40;73.90
41924;DHT22;27613;48.116;11.656;2023-02-28T16:17:42;5.00;75.10
41924;DHT22;27613;48.116;11.656;2023-02-28T16:20:24;4.80;76.10
41924;DHT22;27613;48.116;11.656;2023-02-28T16:22:50;4.50;77.20
41924;DHT22;27613;48.116;11.656;2023-02-28T16:25:26;4.30;77.90
41924;DHT22;27613;48.116;11.656;2023-02-28T16:27:54;4.10;78.90
41924;DHT22;27613;48.116;11.656;2023-02-28T16:30:22;4.00;79.60
41924;DHT22;27613;48.116;11.656;2023-02-28T16:32:49;3.90;80.30
41924;DHT22;27613;48.116;11.656;2023-02-28T16:35:17;3.80;80.90
41924;DHT22;27613;48.116;11.656;2023-02-28T16:37:43;3.70;81.80
41924;DHT22;27613;48.116;11.656;2023-02-28T16:40:23;3.50;82.70
41924;DHT22;27613;48.116;11.656;2023-02-28T16:42:52;3.50;83.30
41924;DHT22;27613;48.116;11.656;2023-02-28T16:45:27;3.30;83.60
41924;DHT22;27613;48.116;11.656;2023-02-28T16:47:53;3.30;84.10
41924;DHT22;27613;48.116;11.656;2023-02-28T16:50:24;3.20;84.60
41924;DHT22;27613;48.116;11.656;2023-02-28T16:52:50;3.10;85.40
41924;DHT22;27613;48.116;11.656;2023-02-28T16:55:17;2.90;86.50
41924;DHT22;27613;48.116;11.656;2023-02-28T16:57:50;2.80;87.70
41924;DHT22;27613;48.116;11.656;2023-02-28T17:00:17;2.90;88.70
41924;DHT22;27613;48.116;11.656;2023-02-28T17:02:43;2.70;89.10
41924;DHT22;27613;48.116;11.656;2023-02-28T17:05:12;2.60;89.90
41924;DHT22;27613;48.116;11.656;2023-02-28T17:07:39;2.50;90.30
41924;DHT22;27613;48.116;11.656;2023-02-28T17:10:18;2.40;90.50
41924;DHT22;27613;48.116;11.656;2023-02-28T17:12:44;2.30;90.80
41924;DHT22;27613;48.116;11.656;2023-02-28T17:15:14;2.20;91.20
41924;DHT22;27613;48.116;11.656;2023-02-28T17:17:41;2.00;91.90
41924;DHT22;27613;48.116;11.656;2023-02-28T17:20:15;2.00;92.30
41924;DHT22;27613;48.116;11.656;2023-02-28T17:22:41;1.90;92.70
41924;DHT22;27613;48.116;11.656;2023-02-28T17:25:08;1.80;93.50
41924;DHT22;27613;48.116;11.656;2023-02-28T17:27:34;1.70;94.10
41924;DHT22;27613;48.116;11.656;2023-02-28T17:29:59;1.60;94.50
41924;DHT22;27613;48.116;11.656;2023-02-28T17:32:26;1.70;94.80
41924;DHT22;27613;48.116;11.656;2023-02-28T17:34:52;1.70;95.00
41924;DHT22;27613;48.116;11.656;2023-02-28T17:37:18;1.70;95.20
41924;DHT22;27613;48.116;11.656;2023-02-28T17:39:44;1.80;95.80
41924;DHT22;27613;48.116;11.656;2023-02-28T17:42:09;1.80;96.00
41924;DHT22;27613;48.116;11.656;2023-02-28T17:44:35;1.80;96.10
41924;DHT22;27613;48.116;11.656;2023-02-28T17:47:00;1.90;96.40
41924;DHT22;27613;48.116;11.656;2023-02-28T17:49:26;1.80;96.50
41924;DHT22;27613;48.116;11.656;2023-02-28T17:51:52;1.50;96.50
41924;DHT22;27613;48.116;11.656;2023-02-28T17:54:17;1.50;96.70